createdAt,value
2023-03-12T00:00:32.950Z,3.10
2023-03-12T00:03:16.551Z,3.92
2023-03-12T00:06:37.164Z,3.83
2023-03-12T00:09:12.212Z,3.45
2023-03-12T00:12:16.244Z,3.60
2023-03-12T00:15:07.414Z,3.33
2023-03-12T00:17:41.009Z,3.35
2023-03-12T00:20:38.292Z,3.72
2023-03-12T00:23:17.183Z,3.40
2023-03-12T00:27:25.990Z,3.17
2023-03-12T00:29:14.793Z,3.33
2023-03-12T00:31:51.565Z,3.50
2023-03-12T00:34:28.382Z,4.15
2023-03-12T00:37:22.400Z,4.57
2023-03-12T00:40:14.879Z,4.63
2023-03-12T00:43:07.444Z,4.95
2023-03-12T00:46:05.012Z,5.60
2023-03-12T00:48:49.504Z,5.60
2023-03-12T00:51:56.454Z,5.40
2023-03-12T00:54:59.365Z,5.40
2023-03-12T00:57:38.978Z,5.95
2023-03-12T01:00:13.447Z,5.68
2023-03-12T01:06:18.667Z,5.13
2023-03-12T01:09:40.611Z,5.57
2023-03-12T01:12:33.682Z,5.57
2023-03-12T01:15:21.727Z,5.47
2023-03-12T01:18:10.440Z,4.82
2023-03-12T01:21:03.344Z,5.50
2023-03-12T01:23:42.202Z,4.80
2023-03-12T01:26:17.345Z,5.20
2023-03-12T01:28:56.051Z,5.22
2023-03-12T01:31:44.868Z,5.38
2023-03-12T01:34:46.150Z,6.22
2023-03-12T01:37:43.501Z,5.10
2023-03-12T01:40:20.240Z,5.07
2023-03-12T01:43:22.474Z,6.05
2023-03-12T01:46:05.658Z,5.85
2023-03-12T01:49:16.240Z,5.28
2023-03-12T01:52:11.756Z,6.65
2023-03-12T01:56:00.599Z,5.88
2023-03-12T02:02:45.818Z,6.43
2023-03-12T02:06:35.024Z,5.80
2023-03-12T02:09:36.582Z,5.85
2023-03-12T02:12:17.853Z,5.32
2023-03-12T02:15:04.566Z,5.72
2023-03-12T02:20:52.709Z,6.30
2023-03-12T02:23:56.153Z,7.82
2023-03-12T02:29:39.059Z,6.93
2023-03-12T02:33:05.732Z,7.78
2023-03-12T02:35:44.049Z,8.68
2023-03-12T02:39:44.940Z,8.65
2023-03-12T02:42:52.593Z,7.25
2023-03-12T02:52:06.520Z,8.02
2023-03-12T02:59:27.489Z,7.38
2023-03-12T03:02:25.286Z,6.72
2023-03-12T03:05:10.701Z,7.30
2023-03-12T03:08:18.566Z,7.28
2023-03-12T03:11:33.573Z,6.60
2023-03-12T03:20:14.928Z,5.47
2023-03-12T03:26:24.347Z,5.25
2023-03-12T03:32:17.930Z,5.10
2023-03-12T03:34:53.648Z,5.88
2023-03-12T03:42:38.296Z,5.07
2023-03-12T03:47:24.648Z,5.22
2023-03-12T03:50:50.100Z,5.22
2023-03-12T03:54:38.998Z,5.00
2023-03-12T03:57:49.242Z,4.22
2023-03-12T04:01:08.086Z,5.43
2023-03-12T04:03:52.968Z,5.18
2023-03-12T04:07:00.893Z,4.60
2023-03-12T04:13:19.269Z,5.07
2023-03-12T04:16:36.817Z,4.72
2023-03-12T04:20:19.938Z,4.70
2023-03-12T04:23:00.560Z,5.53
2023-03-12T04:25:45.516Z,4.72
2023-03-12T04:32:49.658Z,5.05
2023-03-12T04:35:37.995Z,4.80
2023-03-12T04:38:22.396Z,4.68
2023-03-12T04:41:27.203Z,5.85
2023-03-12T04:44:12.263Z,5.47
2023-03-12T04:46:45.281Z,4.85
2023-03-12T04:49:29.355Z,5.03
2023-03-12T04:52:05.046Z,4.93
2023-03-12T04:54:50.321Z,4.68
2023-03-12T04:58:04.292Z,4.70
2023-03-12T05:00:52.105Z,4.65
2023-03-12T05:06:55.628Z,5.55
2023-03-12T05:09:35.582Z,5.78
2023-03-12T05:12:10.753Z,5.15
2023-03-12T05:15:32.841Z,4.80
2023-03-12T05:18:13.488Z,5.22
2023-03-12T05:23:44.776Z,6.00
2023-03-12T05:27:14.173Z,5.60
2023-03-12T05:29:56.674Z,4.93
2023-03-12T05:36:12.026Z,5.20
2023-03-12T05:38:47.489Z,5.22
2023-03-12T05:42:24.431Z,5.13
2023-03-12T05:48:32.002Z,5.22
2023-03-12T05:51:12.670Z,5.65
2023-03-12T05:54:23.152Z,4.95
2023-03-12T05:57:25.960Z,4.90
2023-03-12T06:00:30.922Z,5.32
2023-03-12T06:03:03.275Z,5.68
2023-03-12T06:05:58.101Z,5.13
2023-03-12T06:11:33.678Z,5.10
2023-03-12T06:14:29.602Z,5.35
2023-03-12T06:17:22.467Z,5.05
2023-03-12T06:20:22.793Z,4.90
2023-03-12T06:23:21.812Z,5.65
2023-03-12T06:26:13.572Z,5.20
2023-03-12T06:29:15.570Z,5.22
2023-03-12T06:31:54.560Z,6.10
2023-03-12T06:34:59.128Z,5.72
2023-03-12T06:37:33.807Z,5.32
2023-03-12T06:40:35.401Z,6.25
2023-03-12T06:43:25.962Z,4.60
2023-03-12T06:46:25.668Z,5.93
2023-03-12T06:49:27.825Z,6.38
2023-03-12T06:52:55.441Z,5.90
2023-03-12T06:55:36.833Z,6.80
2023-03-12T06:58:24.352Z,6.65
2023-03-12T07:01:14.169Z,6.43
2023-03-12T07:04:16.290Z,6.82
2023-03-12T07:07:01.515Z,6.40
2023-03-12T07:09:39.725Z,6.95
2023-03-12T07:12:25.967Z,7.65
2023-03-12T07:15:03.579Z,7.28
2023-03-12T07:17:32.634Z,6.80
2023-03-12T07:20:05.060Z,7.10
2023-03-12T07:22:45.585Z,7.97
2023-03-12T07:28:43.266Z,7.28
2023-03-12T07:31:17.097Z,6.65
2023-03-12T07:33:49.950Z,7.60
2023-03-12T07:36:18.157Z,7.18
2023-03-12T07:38:45.711Z,7.38
2023-03-12T07:41:19.186Z,6.90
2023-03-12T07:43:47.245Z,7.65
2023-03-12T07:46:25.589Z,6.75
2023-03-12T07:49:08.629Z,7.47
2023-03-12T07:51:41.736Z,6.97
2023-03-12T07:54:28.888Z,7.23
2023-03-12T07:56:56.724Z,8.35
2023-03-12T07:59:25.487Z,8.05
2023-03-12T08:01:53.060Z,7.82
2023-03-12T08:04:20.879Z,7.38
2023-03-12T08:06:59.863Z,6.68
2023-03-12T08:09:43.468Z,7.05
2023-03-12T08:12:22.665Z,7.65
2023-03-12T08:15:49.761Z,7.50
2023-03-12T08:18:11.862Z,7.63
2023-03-12T08:20:53.118Z,8.57
2023-03-12T08:23:28.746Z,7.65
2023-03-12T08:26:04.049Z,8.05
2023-03-12T08:29:09.218Z,8.45
2023-03-12T08:32:04.694Z,8.70
2023-03-12T08:34:35.102Z,8.60
2023-03-12T08:37:16.325Z,9.65
2023-03-12T08:40:09.160Z,9.35
2023-03-12T08:42:46.251Z,9.77
2023-03-12T08:45:43.804Z,9.98
2023-03-12T08:48:17.216Z,11.30
2023-03-12T08:51:08.323Z,10.63
2023-03-12T08:54:05.777Z,10.50
2023-03-12T08:56:45.015Z,9.75
2023-03-12T08:59:32.497Z,10.65
2023-03-12T09:02:11.531Z,10.63
2023-03-12T09:04:41.413Z,11.23
2023-03-12T09:07:21.459Z,12.07
2023-03-12T09:09:52.470Z,11.25
2023-03-12T09:12:49.495Z,10.30
2023-03-12T09:15:32.167Z,11.35
2023-03-12T09:18:24.965Z,11.50
2023-03-12T09:21:53.333Z,10.90
2023-03-12T09:24:01.899Z,11.38
2023-03-12T09:26:51.568Z,11.95
2023-03-12T09:29:32.719Z,12.13
2023-03-12T09:32:28.911Z,11.27
2023-03-12T09:34:59.386Z,11.73
2023-03-12T09:37:33.408Z,12.38
2023-03-12T09:40:20.672Z,12.02
2023-03-12T09:42:51.646Z,13.70
2023-03-12T09:45:34.350Z,12.95
2023-03-12T09:51:03.112Z,13.43
2023-03-12T09:53:59.335Z,11.80
2023-03-12T09:56:53.324Z,13.35
2023-03-12T09:59:34.327Z,13.40
2023-03-12T10:02:36.559Z,14.43
2023-03-12T10:05:24.462Z,13.07
2023-03-12T10:08:23.030Z,14.52
2023-03-12T10:11:12.225Z,13.52
2023-03-12T10:14:23.645Z,14.82
2023-03-12T10:19:42.367Z,14.55
2023-03-12T10:22:11.958Z,13.75
2023-03-12T10:25:05.438Z,15.27
2023-03-12T10:28:09.643Z,15.18
2023-03-12T10:31:03.508Z,16.15
2023-03-12T10:34:59.889Z,17.60
2023-03-12T10:38:15.349Z,16.52
2023-03-12T10:41:14.852Z,16.33
2023-03-12T10:43:54.742Z,16.87
2023-03-12T10:47:07.308Z,17.02
2023-03-12T10:50:12.940Z,17.95
2023-03-12T10:56:15.845Z,19.65
2023-03-12T10:58:54.245Z,18.77
2023-03-12T11:01:46.003Z,19.85
2023-03-12T11:04:45.491Z,20.77
2023-03-12T11:07:51.889Z,22.40
2023-03-12T11:11:02.515Z,21.92
2023-03-12T11:17:30.352Z,22.40
2023-03-12T11:20:37.370Z,21.60
2023-03-12T11:23:45.285Z,21.17
2023-03-12T11:26:19.307Z,23.80
2023-03-12T11:29:11.335Z,22.20
2023-03-12T11:31:54.101Z,22.70
2023-03-12T11:35:00.828Z,22.02
2023-03-12T11:38:08.043Z,22.92
2023-03-12T11:40:57.733Z,24.23
2023-03-12T11:43:44.410Z,24.77
2023-03-12T11:46:40.823Z,23.80
2023-03-12T11:49:16.140Z,23.20
2023-03-12T11:52:54.518Z,24.23
2023-03-12T11:59:37.786Z,21.10
2023-03-12T12:02:28.295Z,17.40
2023-03-12T12:05:25.716Z,16.75
2023-03-12T12:08:18.162Z,13.82
2023-03-12T12:15:09.864Z,15.07
2023-03-12T12:21:02.630Z,13.77
2023-03-12T12:24:34.140Z,13.82
2023-03-12T12:27:31.024Z,12.20
2023-03-12T12:30:32.868Z,11.27
2023-03-12T12:34:06.360Z,10.73
2023-03-12T12:37:18.630Z,11.15
2023-03-12T12:39:59.495Z,10.57
2023-03-12T12:42:47.879Z,10.43
2023-03-12T12:45:41.581Z,7.82
2023-03-12T12:48:51.409Z,8.32
2023-03-12T12:51:20.693Z,9.25
2023-03-12T12:54:12.453Z,8.18
2023-03-12T12:57:42.626Z,8.15
2023-03-12T13:00:23.881Z,6.93
2023-03-12T13:03:08.138Z,7.90
2023-03-12T13:08:49.211Z,8.20
2023-03-12T13:11:35.811Z,7.28
2023-03-12T13:14:15.581Z,6.38
2023-03-12T13:17:14.613Z,7.57
2023-03-12T13:23:21.687Z,7.90
2023-03-12T13:25:58.637Z,6.25
2023-03-12T13:29:11.353Z,8.52
2023-03-12T13:31:44.512Z,6.32
2023-03-12T13:34:18.687Z,6.35
2023-03-12T13:37:42.156Z,7.80
2023-03-12T13:40:32.614Z,7.32
2023-03-12T13:43:46.517Z,6.55
2023-03-12T13:46:19.074Z,7.53
2023-03-12T13:49:10.151Z,6.68
2023-03-12T13:51:50.860Z,6.88
2023-03-12T13:54:22.421Z,7.53
2023-03-12T13:56:58.297Z,6.95
2023-03-12T13:59:28.772Z,7.85
2023-03-12T14:02:00.420Z,8.48
2023-03-12T14:04:41.089Z,6.97
2023-03-12T14:07:20.156Z,6.82
2023-03-12T14:09:59.504Z,7.72
2023-03-12T14:12:29.709Z,6.90
2023-03-12T14:15:00.319Z,7.35
2023-03-12T14:17:29.680Z,8.35
2023-03-12T14:20:01.446Z,9.30
2023-03-12T14:22:33.707Z,9.67
2023-03-12T14:25:26.069Z,8.93
2023-03-12T14:27:55.744Z,7.18
2023-03-12T14:30:44.088Z,7.15
2023-03-12T14:33:15.922Z,8.25
2023-03-12T14:35:56.361Z,6.65
2023-03-12T14:38:38.596Z,10.15
2023-03-12T14:41:18.998Z,8.68
2023-03-12T14:43:53.349Z,8.05
2023-03-12T14:46:22.449Z,7.87
2023-03-12T14:48:51.285Z,10.15
2023-03-12T14:51:42.955Z,9.45
2023-03-12T14:54:21.534Z,9.38
2023-03-12T14:56:49.131Z,8.65
2023-03-12T14:59:22.855Z,10.57
2023-03-12T15:01:53.379Z,8.95
2023-03-12T15:04:22.467Z,9.25
2023-03-12T15:06:52.949Z,9.02
2023-03-12T15:09:26.029Z,9.73
2023-03-12T15:12:04.158Z,10.32
2023-03-12T15:14:34.934Z,9.25
2023-03-12T15:17:04.531Z,9.73
2023-03-12T15:19:33.680Z,9.23
2023-03-12T15:22:01.739Z,9.10
2023-03-12T15:24:31.289Z,8.52
2023-03-12T15:26:58.707Z,8.90
2023-03-12T15:29:28.940Z,8.68
2023-03-12T15:32:00.375Z,10.90
2023-03-12T15:34:28.464Z,10.88
2023-03-12T15:36:56.018Z,11.80
2023-03-12T15:39:29.525Z,12.48
2023-03-12T15:42:01.040Z,9.23
2023-03-12T15:44:37.861Z,9.23
2023-03-12T15:47:14.679Z,10.82
2023-03-12T15:49:44.918Z,9.88
2023-03-12T15:52:22.169Z,10.80
2023-03-12T15:55:09.132Z,9.40
2023-03-12T15:57:53.273Z,9.80
2023-03-12T16:00:31.303Z,10.02
2023-03-12T16:03:01.807Z,11.15
2023-03-12T16:05:40.110Z,10.00
2023-03-12T16:08:29.328Z,9.35
2023-03-12T16:10:56.945Z,9.50
2023-03-12T16:13:28.433Z,10.13
2023-03-12T16:15:55.936Z,10.38
2023-03-12T16:18:23.591Z,11.68
2023-03-12T16:20:53.493Z,11.07
2023-03-12T16:23:21.363Z,10.88
2023-03-12T16:25:50.987Z,10.18
2023-03-12T16:28:20.771Z,9.77
2023-03-12T16:30:48.579Z,12.80
2023-03-12T16:33:17.424Z,9.43
2023-03-12T16:35:45.079Z,10.30
2023-03-12T16:38:15.012Z,10.63
2023-03-12T16:40:48.029Z,9.13
2023-03-12T16:45:44.560Z,10.15
2023-03-12T16:48:14.838Z,9.88
2023-03-12T16:50:46.404Z,10.00
2023-03-12T16:53:13.839Z,10.18
2023-03-12T16:56:01.257Z,9.77
2023-03-12T16:58:29.547Z,10.48
2023-03-12T17:00:57.813Z,10.15
2023-03-12T17:03:28.653Z,11.43
2023-03-12T17:05:56.547Z,9.15
2023-03-12T17:08:24.255Z,9.25
2023-03-12T17:10:52.381Z,9.88
2023-03-12T17:13:24.504Z,9.65
2023-03-12T17:15:52.831Z,10.60
2023-03-12T17:18:20.666Z,9.98
2023-03-12T17:20:49.257Z,9.48
2023-03-12T17:23:16.694Z,10.73
2023-03-12T17:25:44.638Z,10.10
2023-03-12T17:28:13.636Z,8.75
2023-03-12T17:30:41.120Z,8.68
2023-03-12T17:33:10.647Z,9.38
2023-03-12T17:35:38.414Z,9.43
2023-03-12T17:38:05.906Z,9.82
2023-03-12T17:40:33.874Z,8.15
2023-03-12T17:43:01.392Z,11.07
2023-03-12T17:45:28.876Z,8.55
2023-03-12T17:47:56.321Z,10.23
2023-03-12T17:50:23.759Z,9.38
2023-03-12T17:52:51.791Z,10.13
2023-03-12T17:55:19.340Z,8.05
2023-03-12T17:57:46.780Z,9.50
2023-03-12T18:00:14.475Z,8.05
2023-03-12T18:02:42.639Z,10.13
2023-03-12T18:05:11.578Z,10.02
2023-03-12T18:07:39.547Z,7.90
2023-03-12T18:10:08.006Z,10.27
2023-03-12T18:12:38.033Z,7.88
2023-03-12T18:15:06.185Z,9.13
2023-03-12T18:17:33.882Z,9.38
2023-03-12T18:20:01.415Z,8.88
2023-03-12T18:22:28.903Z,9.38
2023-03-12T18:24:56.377Z,9.77
2023-03-12T18:27:25.066Z,9.15
2023-03-12T18:29:52.540Z,9.13
2023-03-12T18:32:20.056Z,9.20
2023-03-12T18:34:48.092Z,9.95
2023-03-12T18:37:15.817Z,8.75
2023-03-12T18:39:43.281Z,9.73
2023-03-12T18:42:10.740Z,8.30
2023-03-12T18:44:38.203Z,9.15
2023-03-12T18:47:05.704Z,7.60
2023-03-12T18:49:33.325Z,9.30
2023-03-12T18:52:00.776Z,8.43
2023-03-12T18:54:28.231Z,8.38
2023-03-12T18:56:55.699Z,9.25
2023-03-12T18:59:23.379Z,9.88
2023-03-12T19:01:51.000Z,8.13
2023-03-12T19:04:19.776Z,9.30
2023-03-12T19:06:51.531Z,7.05
2023-03-12T19:09:22.859Z,7.30
2023-03-12T19:11:50.372Z,8.88
2023-03-12T19:14:17.868Z,8.43
2023-03-12T19:16:45.299Z,8.02
2023-03-12T19:19:14.983Z,9.75
2023-03-12T19:21:42.434Z,9.27
2023-03-12T19:24:09.950Z,9.65
2023-03-12T19:26:37.420Z,7.28
2023-03-12T19:29:04.889Z,11.65
2023-03-12T19:31:34.337Z,10.82
2023-03-12T19:34:01.912Z,10.70
2023-03-12T19:36:29.484Z,11.18
2023-03-12T19:38:56.949Z,11.25
2023-03-12T19:41:24.453Z,10.13
2023-03-12T19:43:51.967Z,10.15
2023-03-12T19:46:19.441Z,10.60
2023-03-12T19:48:47.068Z,10.93
2023-03-12T19:51:14.572Z,9.35
2023-03-12T19:53:46.164Z,9.68
2023-03-12T19:56:14.064Z,10.63
2023-03-12T19:58:41.633Z,9.98
2023-03-12T20:01:09.401Z,10.50
2023-03-12T20:03:43.151Z,11.98
2023-03-12T20:06:15.571Z,12.07
2023-03-12T20:08:44.497Z,13.13
2023-03-12T20:11:12.155Z,11.93
2023-03-12T20:13:40.007Z,10.55
2023-03-12T20:16:07.932Z,13.25
2023-03-12T20:18:35.459Z,12.05
2023-03-12T20:21:05.636Z,12.77
2023-03-12T20:23:33.262Z,12.13
2023-03-12T20:26:00.788Z,13.25
2023-03-12T20:28:28.317Z,12.15
2023-03-12T20:30:55.774Z,13.02
2023-03-12T20:33:25.541Z,12.13
2023-03-12T20:35:53.142Z,11.77
2023-03-12T20:38:20.574Z,11.60
2023-03-12T20:40:48.113Z,10.45
2023-03-12T20:43:17.626Z,11.32
2023-03-12T20:45:48.509Z,10.63
2023-03-12T20:48:16.006Z,12.52
2023-03-12T20:50:43.429Z,11.25
2023-03-12T20:53:10.922Z,9.48
2023-03-12T20:55:39.148Z,9.65
2023-03-12T20:58:06.977Z,9.43
2023-03-12T21:00:34.495Z,9.88
2023-03-12T21:03:01.973Z,8.00
2023-03-12T21:05:29.448Z,10.50
2023-03-12T21:07:58.211Z,10.10
2023-03-12T21:10:27.188Z,8.25
2023-03-12T21:12:59.176Z,7.40
2023-03-12T21:15:27.081Z,7.72
2023-03-12T21:17:55.162Z,9.70
2023-03-12T21:20:23.625Z,7.18
2023-03-12T21:22:52.562Z,7.43
2023-03-12T21:25:20.094Z,7.60
2023-03-12T21:27:51.690Z,7.50
2023-03-12T21:30:20.010Z,6.43
2023-03-12T21:32:47.518Z,8.40
2023-03-12T21:35:15.078Z,6.85
2023-03-12T21:37:42.593Z,6.65
2023-03-12T21:40:12.756Z,7.05
2023-03-12T21:42:42.558Z,7.20
2023-03-12T21:45:10.538Z,6.65
2023-03-12T21:47:38.520Z,6.00
2023-03-12T21:50:06.250Z,5.85
2023-03-12T21:52:41.273Z,6.90
2023-03-12T21:55:10.955Z,6.95
2023-03-12T21:57:38.423Z,6.07
2023-03-12T22:00:06.176Z,6.75
2023-03-12T22:02:33.661Z,6.38
2023-03-12T22:05:02.422Z,8.25
2023-03-12T22:07:37.558Z,8.00
2023-03-12T22:10:05.744Z,7.10
2023-03-12T22:12:35.380Z,7.25
2023-03-12T22:15:02.912Z,6.03
2023-03-12T22:17:32.731Z,6.45
2023-03-12T22:20:02.917Z,5.65
2023-03-12T22:22:30.330Z,4.68
2023-03-12T22:24:59.987Z,6.13
2023-03-12T22:27:27.572Z,6.18
2023-03-12T22:29:57.395Z,5.80
2023-03-12T22:32:27.556Z,6.07
2023-03-12T22:34:55.166Z,7.07
2023-03-12T22:37:22.670Z,5.10
2023-03-12T22:39:52.977Z,5.97
2023-03-12T22:42:22.762Z,5.47
2023-03-12T22:44:50.248Z,5.40
2023-03-12T22:47:20.077Z,7.68
2023-03-12T22:49:49.171Z,6.32
2023-03-12T22:52:16.992Z,6.20
2023-03-12T22:54:44.469Z,6.85
2023-03-12T22:57:12.367Z,8.43
2023-03-12T22:59:39.787Z,6.90
2023-03-12T23:02:07.271Z,7.25
2023-03-12T23:04:36.665Z,8.50
2023-03-12T23:07:13.686Z,6.60
2023-03-12T23:09:44.116Z,7.95
2023-03-12T23:12:13.776Z,7.50
2023-03-12T23:14:41.296Z,6.85
2023-03-12T23:17:10.972Z,7.60
2023-03-12T23:19:38.451Z,8.70
2023-03-12T23:22:05.918Z,7.00
2023-03-12T23:24:34.754Z,7.00
2023-03-12T23:27:02.466Z,7.03
2023-03-12T23:29:30.884Z,7.28
2023-03-12T23:31:58.550Z,6.70
2023-03-12T23:34:28.614Z,6.47
2023-03-12T23:37:07.973Z,7.78
2023-03-12T23:40:06.496Z,7.60
2023-03-12T23:43:26.152Z,7.18
2023-03-12T23:48:11.334Z,9.63
2023-03-12T23:50:47.354Z,7.25
2023-03-12T23:53:20.712Z,8.48
2023-03-12T23:56:02.453Z,8.63
2023-03-12T23:58:32.088Z,9.02
